sensor_id;sensor_type;location;lat;lon;timestamp;pressure;altitude;pressure_sealevel;temperature;humidity
24620;BME280;12763;55.802;37.404;2023-03-17T00:01:50;99720.84;;;4.57;100.00
24620;BME280;12763;55.802;37.404;2023-03-17T00:04:19;99718.97;;;4.58;100.00
24620;BME280;12763;55.802;37.404;2023-03-17T00:06:46;99730.88;;;4.65;100.00
24620;BME280;12763;55.802;37.404;2023-03-17T00:09:16;99725.63;;;4.55;100.00
24620;BME280;12763;55.802;37.404;2023-03-17T00:11:43;99731.41;;;4.60;100.00
24620;BME280;12763;55.802;37.404;2023-03-17T00:14:09;99727.25;;;4.72;100.00
24620;BME280;12763;55.802;37.404;2023-03-17T00:16:38;99725.53;;;4.80;100.00
24620;BME280;12763;55.802;37.404;2023-03-17T00:19:04;99729.47;;;4.77;100.00
24620;BME280;12763;55.802;37.404;2023-03-17T00:21:32;99732.09;;;4.62;100.00
24620;BME280;12763;55.802;37.404;2023-03-17T00:23:59;99726.63;;;4.62;100.00
24620;BME280;12763;55.802;37.404;2023-03-17T00:26:26;99738.88;;;4.74;100.00
24620;BME280;12763;55.802;37.404;2023-03-17T00:28:53;99737.13;;;4.82;100.00
24620;BME280;12763;55.802;37.404;2023-03-17T00:31:22;99743.66;;;4.72;100.00
24620;BME280;12763;55.802;37.404;2023-03-17T00:33:52;99739.63;;;4.52;100.00
24620;BME280;12763;55.802;37.404;2023-03-17T00:36:30;99747.47;;;4.63;100.00
24620;BME280;12763;55.802;37.404;2023-03-17T00:38:57;99749.19;;;4.48;100.00
24620;BME280;12763;55.802;37.404;2023-03-17T00:41:24;99740.34;;;4.38;100.00
24620;BME280;12763;55.802;37.404;2023-03-17T00:43:51;99737.66;;;4.30;100.00
24620;BME280;12763;55.802;37.404;2023-03-17T00:48:46;99726.75;;;4.22;100.00
24620;BME280;12763;55.802;37.404;2023-03-17T00:51:13;99741.06;;;4.32;100.00
24620;BME280;12763;55.802;37.404;2023-03-17T00:53:42;99736.97;;;4.36;100.00
24620;BME280;12763;55.802;37.404;2023-03-17T00:56:16;99727.72;;;4.37;100.00
24620;BME280;12763;55.802;37.404;2023-03-17T00:58:43;99745.81;;;4.38;100.00
24620;BME280;12763;55.802;37.404;2023-03-17T01:01:10;99753.00;;;4.31;100.00
24620;BME280;12763;55.802;37.404;2023-03-17T01:03:36;99754.19;;;4.37;100.00
24620;BME280;12763;55.802;37.404;2023-03-17T01:06:05;99762.19;;;4.54;100.00
24620;BME280;12763;55.802;37.404;2023-03-17T01:08:32;99765.44;;;4.34;100.00
24620;BME280;12763;55.802;37.404;2023-03-17T01:10:58;99763.59;;;4.18;100.00
24620;BME280;12763;55.802;37.404;2023-03-17T01:13:25;99761.75;;;3.94;100.00
24620;BME280;12763;55.802;37.404;2023-03-17T01:15:51;99780.66;;;4.20;100.00
24620;BME280;12763;55.802;37.404;2023-03-17T01:18:19;99782.00;;;4.40;100.00
24620;BME280;12763;55.802;37.404;2023-03-17T01:20:46;99774.19;;;4.21;100.00
24620;BME280;12763;55.802;37.404;2023-03-17T01:23:13;99782.56;;;4.28;100.00
24620;BME280;12763;55.802;37.404;2023-03-17T01:25:39;99797.75;;;4.30;100.00
24620;BME280;12763;55.802;37.404;2023-03-17T01:28:06;99791.03;;;4.57;100.00
24620;BME280;12763;55.802;37.404;2023-03-17T01:30:36;99790.53;;;4.45;100.00
24620;BME280;12763;55.802;37.404;2023-03-17T01:33:04;99803.22;;;4.30;100.00
24620;BME280;12763;55.802;37.404;2023-03-17T01:35:31;99806.31;;;4.11;100.00
24620;BME280;12763;55.802;37.404;2023-03-17T01:37:58;99810.38;;;4.15;100.00
24620;BME280;12763;55.802;37.404;2023-03-17T01:40:27;99813.09;;;4.39;100.00
24620;BME280;12763;55.802;37.404;2023-03-17T01:49:11;99816.84;;;4.54;100.00
24620;BME280;12763;55.802;37.404;2023-03-17T01:52:12;99814.50;;;4.19;100.00
24620;BME280;12763;55.802;37.404;2023-03-17T01:54:47;99827.81;;;4.30;100.00
24620;BME280;12763;55.802;37.404;2023-03-17T01:59:48;99834.28;;;4.21;100.00
24620;BME280;12763;55.802;37.404;2023-03-17T02:02:22;99841.13;;;4.33;100.00
24620;BME280;12763;55.802;37.404;2023-03-17T02:04:51;99838.72;;;4.30;100.00
24620;BME280;12763;55.802;37.404;2023-03-17T02:07:19;99821.31;;;4.23;100.00
24620;BME280;12763;55.802;37.404;2023-03-17T02:09:46;99821.63;;;4.20;100.00
24620;BME280;12763;55.802;37.404;2023-03-17T02:12:12;99834.81;;;4.17;100.00
24620;BME280;12763;55.802;37.404;2023-03-17T02:14:40;99832.56;;;4.12;100.00
24620;BME280;12763;55.802;37.404;2023-03-17T02:17:06;99836.16;;;3.88;100.00
24620;BME280;12763;55.802;37.404;2023-03-17T02:19:33;99849.63;;;4.06;100.00
24620;BME280;12763;55.802;37.404;2023-03-17T02:21:59;99873.03;;;4.00;100.00
24620;BME280;12763;55.802;37.404;2023-03-17T02:27:01;99874.59;;;4.19;100.00
24620;BME280;12763;55.802;37.404;2023-03-17T02:29:32;99879.19;;;4.19;99.11
24620;BME280;12763;55.802;37.404;2023-03-17T02:32:00;99883.09;;;4.00;99.13
24620;BME280;12763;55.802;37.404;2023-03-17T02:34:28;99885.66;;;4.18;99.11
24620;BME280;12763;55.802;37.404;2023-03-17T02:36:54;99882.75;;;3.95;97.23
24620;BME280;12763;55.802;37.404;2023-03-17T02:39:20;99891.63;;;4.05;97.13
24620;BME280;12763;55.802;37.404;2023-03-17T02:41:45;99895.38;;;4.04;97.88
24620;BME280;12763;55.802;37.404;2023-03-17T02:44:12;99913.34;;;4.31;95.33
24620;BME280;12763;55.802;37.404;2023-03-17T02:46:38;99915.56;;;4.19;94.40
24620;BME280;12763;55.802;37.404;2023-03-17T02:49:04;99912.97;;;4.09;94.40
24620;BME280;12763;55.802;37.404;2023-03-17T02:51:30;99907.16;;;4.12;94.13
24620;BME280;12763;55.802;37.404;2023-03-17T02:53:56;99908.38;;;4.34;93.57
24620;BME280;12763;55.802;37.404;2023-03-17T02:56:22;99908.56;;;4.25;91.98
24620;BME280;12763;55.802;37.404;2023-03-17T02:58:48;99910.75;;;3.97;92.57
24620;BME280;12763;55.802;37.404;2023-03-17T03:01:14;99904.31;;;4.30;92.18
24620;BME280;12763;55.802;37.404;2023-03-17T03:03:40;99917.25;;;4.20;92.20
24620;BME280;12763;55.802;37.404;2023-03-17T03:06:06;99929.00;;;3.96;92.18
24620;BME280;12763;55.802;37.404;2023-03-17T03:08:33;99934.50;;;4.37;91.05
24620;BME280;12763;55.802;37.404;2023-03-17T03:10:58;99933.78;;;4.02;89.65
24620;BME280;12763;55.802;37.404;2023-03-17T03:13:27;99934.34;;;4.22;90.33
24620;BME280;12763;55.802;37.404;2023-03-17T03:15:53;99944.22;;;4.23;88.99
24620;BME280;12763;55.802;37.404;2023-03-17T03:18:19;99942.88;;;4.35;87.45
24620;BME280;12763;55.802;37.404;2023-03-17T03:20:45;99950.03;;;4.20;88.16
24620;BME280;12763;55.802;37.404;2023-03-17T03:23:11;99952.59;;;4.22;88.27
24620;BME280;12763;55.802;37.404;2023-03-17T03:25:37;99939.81;;;4.22;86.95
24620;BME280;12763;55.802;37.404;2023-03-17T03:28:05;99946.25;;;4.05;87.21
24620;BME280;12763;55.802;37.404;2023-03-17T03:30:33;99956.34;;;4.12;87.44
24620;BME280;12763;55.802;37.404;2023-03-17T03:32:58;99956.00;;;4.15;86.06
24620;BME280;12763;55.802;37.404;2023-03-17T03:35:24;99965.75;;;4.26;85.75
24620;BME280;12763;55.802;37.404;2023-03-17T03:37:50;99973.03;;;4.01;85.24
24620;BME280;12763;55.802;37.404;2023-03-17T03:40:16;99967.41;;;3.95;85.73
24620;BME280;12763;55.802;37.404;2023-03-17T03:42:42;99977.69;;;4.17;84.91
24620;BME280;12763;55.802;37.404;2023-03-17T03:45:08;99989.97;;;4.13;85.16
24620;BME280;12763;55.802;37.404;2023-03-17T03:47:34;99984.84;;;4.18;83.97
24620;BME280;12763;55.802;37.404;2023-03-17T03:50:00;99994.03;;;4.09;84.08
24620;BME280;12763;55.802;37.404;2023-03-17T03:52:26;99995.75;;;4.02;82.70
24620;BME280;12763;55.802;37.404;2023-03-17T03:54:51;99985.63;;;3.86;83.03
24620;BME280;12763;55.802;37.404;2023-03-17T03:57:17;99995.78;;;4.18;82.98
24620;BME280;12763;55.802;37.404;2023-03-17T03:59:43;99997.34;;;4.29;82.50
24620;BME280;12763;55.802;37.404;2023-03-17T04:02:08;100007.38;;;4.12;82.34
24620;BME280;12763;55.802;37.404;2023-03-17T04:04:35;99998.50;;;4.10;82.02
24620;BME280;12763;55.802;37.404;2023-03-17T04:07:01;100011.41;;;3.84;83.19
24620;BME280;12763;55.802;37.404;2023-03-17T04:09:27;100007.25;;;3.80;82.54
24620;BME280;12763;55.802;37.404;2023-03-17T04:11:52;100017.59;;;4.02;82.80
24620;BME280;12763;55.802;37.404;2023-03-17T04:14:18;100006.88;;;4.08;81.49
24620;BME280;12763;55.802;37.404;2023-03-17T04:16:44;100021.88;;;4.12;80.96
24620;BME280;12763;55.802;37.404;2023-03-17T04:19:10;100026.84;;;4.17;80.72
24620;BME280;12763;55.802;37.404;2023-03-17T04:21:36;100031.66;;;4.23;80.36
24620;BME280;12763;55.802;37.404;2023-03-17T04:24:03;100040.13;;;4.04;79.65
24620;BME280;12763;55.802;37.404;2023-03-17T04:26:31;100043.50;;;3.98;80.39
24620;BME280;12763;55.802;37.404;2023-03-17T04:28:57;100043.44;;;4.24;79.16
24620;BME280;12763;55.802;37.404;2023-03-17T04:31:23;100042.25;;;4.26;78.75
24620;BME280;12763;55.802;37.404;2023-03-17T04:33:49;100043.72;;;4.04;78.54
24620;BME280;12763;55.802;37.404;2023-03-17T04:36:20;100054.00;;;4.19;78.40
24620;BME280;12763;55.802;37.404;2023-03-17T04:38:48;100061.75;;;4.39;78.83
24620;BME280;12763;55.802;37.404;2023-03-17T04:41:14;100065.66;;;4.37;77.35
24620;BME280;12763;55.802;37.404;2023-03-17T04:43:39;100077.50;;;4.03;77.41
24620;BME280;12763;55.802;37.404;2023-03-17T04:46:07;100088.56;;;4.36;76.42
24620;BME280;12763;55.802;37.404;2023-03-17T04:48:33;100085.00;;;4.51;75.18
24620;BME280;12763;55.802;37.404;2023-03-17T04:50:59;100092.06;;;4.20;75.00
24620;BME280;12763;55.802;37.404;2023-03-17T04:53:25;100097.53;;;4.20;72.75
24620;BME280;12763;55.802;37.404;2023-03-17T04:55:51;100098.34;;;4.54;73.33
24620;BME280;12763;55.802;37.404;2023-03-17T04:58:18;100100.22;;;4.54;72.70
24620;BME280;12763;55.802;37.404;2023-03-17T05:00:44;100109.59;;;4.43;72.58
24620;BME280;12763;55.802;37.404;2023-03-17T05:03:10;100104.47;;;4.40;71.26
24620;BME280;12763;55.802;37.404;2023-03-17T05:05:36;100104.47;;;4.40;71.28
24620;BME280;12763;55.802;37.404;2023-03-17T05:08:02;100119.38;;;4.62;71.29
24620;BME280;12763;55.802;37.404;2023-03-17T05:10:28;100123.28;;;4.51;71.00
24620;BME280;12763;55.802;37.404;2023-03-17T05:12:54;100130.19;;;4.71;70.51
24620;BME280;12763;55.802;37.404;2023-03-17T05:15:20;100130.41;;;4.36;71.41
24620;BME280;12763;55.802;37.404;2023-03-17T05:17:46;100143.00;;;4.29;70.51
24620;BME280;12763;55.802;37.404;2023-03-17T05:20:12;100141.38;;;4.44;69.88
24620;BME280;12763;55.802;37.404;2023-03-17T05:22:38;100147.66;;;4.45;69.28
24620;BME280;12763;55.802;37.404;2023-03-17T05:25:05;100149.25;;;4.47;70.10
24620;BME280;12763;55.802;37.404;2023-03-17T05:27:31;100164.53;;;4.74;68.60
24620;BME280;12763;55.802;37.404;2023-03-17T05:29:57;100157.47;;;4.55;68.61
24620;BME280;12763;55.802;37.404;2023-03-17T05:32:23;100166.72;;;4.62;67.64
24620;BME280;12763;55.802;37.404;2023-03-17T05:34:49;100166.69;;;4.54;68.53
24620;BME280;12763;55.802;37.404;2023-03-17T05:37:15;100169.19;;;4.90;68.08
24620;BME280;12763;55.802;37.404;2023-03-17T05:39:41;100172.81;;;5.06;65.85
24620;BME280;12763;55.802;37.404;2023-03-17T05:42:07;100173.31;;;4.94;66.35
24620;BME280;12763;55.802;37.404;2023-03-17T05:44:33;100174.31;;;4.85;65.78
24620;BME280;12763;55.802;37.404;2023-03-17T05:46:59;100179.81;;;5.01;65.70
24620;BME280;12763;55.802;37.404;2023-03-17T05:49:28;100179.09;;;4.91;65.27
24620;BME280;12763;55.802;37.404;2023-03-17T05:51:54;100189.38;;;4.97;64.76
24620;BME280;12763;55.802;37.404;2023-03-17T05:54:21;100189.41;;;5.05;64.77
24620;BME280;12763;55.802;37.404;2023-03-17T05:56:47;100187.69;;;5.20;64.42
24620;BME280;12763;55.802;37.404;2023-03-17T05:59:13;100194.53;;;5.00;64.52
24620;BME280;12763;55.802;37.404;2023-03-17T06:01:42;100189.00;;;4.92;62.73
24620;BME280;12763;55.802;37.404;2023-03-17T06:04:09;100193.09;;;4.80;62.38
24620;BME280;12763;55.802;37.404;2023-03-17T06:06:34;100201.69;;;5.01;62.10
24620;BME280;12763;55.802;37.404;2023-03-17T06:09:01;100198.03;;;4.76;62.39
24620;BME280;12763;55.802;37.404;2023-03-17T06:11:27;100197.94;;;4.94;62.74
24620;BME280;12763;55.802;37.404;2023-03-17T06:13:52;100202.06;;;5.22;61.58
24620;BME280;12763;55.802;37.404;2023-03-17T06:16:18;100204.09;;;5.12;61.42
24620;BME280;12763;55.802;37.404;2023-03-17T06:18:45;100211.97;;;5.15;60.99
24620;BME280;12763;55.802;37.404;2023-03-17T06:21:11;100215.47;;;5.49;60.85
24620;BME280;12763;55.802;37.404;2023-03-17T06:23:38;100223.69;;;5.57;59.59
24620;BME280;12763;55.802;37.404;2023-03-17T06:26:04;100218.22;;;5.65;59.56
24620;BME280;12763;55.802;37.404;2023-03-17T06:28:30;100219.91;;;5.74;58.25
24620;BME280;12763;55.802;37.404;2023-03-17T06:30:56;100226.94;;;6.01;58.02
24620;BME280;12763;55.802;37.404;2023-03-17T06:33:24;100229.84;;;5.83;57.81
24620;BME280;12763;55.802;37.404;2023-03-17T06:35:50;100230.91;;;5.99;57.55
24620;BME280;12763;55.802;37.404;2023-03-17T06:38:16;100225.41;;;5.82;56.91
24620;BME280;12763;55.802;37.404;2023-03-17T06:40:42;100224.34;;;6.24;57.12
24620;BME280;12763;55.802;37.404;2023-03-17T06:43:08;100219.06;;;6.14;55.93
24620;BME280;12763;55.802;37.404;2023-03-17T06:45:34;100213.34;;;6.40;56.04
24620;BME280;12763;55.802;37.404;2023-03-17T06:48:00;100216.16;;;6.00;54.74
24620;BME280;12763;55.802;37.404;2023-03-17T06:50:26;100218.81;;;6.48;55.98
24620;BME280;12763;55.802;37.404;2023-03-17T06:52:52;100235.84;;;5.95;54.84
24620;BME280;12763;55.802;37.404;2023-03-17T06:55:18;100224.88;;;6.11;56.26
24620;BME280;12763;55.802;37.404;2023-03-17T06:57:44;100237.91;;;5.77;56.83
24620;BME280;12763;55.802;37.404;2023-03-17T07:00:10;100237.75;;;5.86;56.10
24620;BME280;12763;55.802;37.404;2023-03-17T07:02:38;100235.84;;;5.79;55.84
24620;BME280;12763;55.802;37.404;2023-03-17T07:05:05;100236.19;;;5.76;56.33
24620;BME280;12763;55.802;37.404;2023-03-17T07:07:31;100243.34;;;5.61;55.83
24620;BME280;12763;55.802;37.404;2023-03-17T07:09:57;100244.06;;;5.63;55.93
24620;BME280;12763;55.802;37.404;2023-03-17T07:12:22;100233.25;;;5.45;56.22
24620;BME280;12763;55.802;37.404;2023-03-17T07:14:48;100253.06;;;5.47;55.01
24620;BME280;12763;55.802;37.404;2023-03-17T07:17:15;100244.88;;;5.47;55.24
24620;BME280;12763;55.802;37.404;2023-03-17T07:19:41;100248.31;;;5.41;55.75
24620;BME280;12763;55.802;37.404;2023-03-17T07:22:08;100256.19;;;5.52;54.91
24620;BME280;12763;55.802;37.404;2023-03-17T07:24:36;100259.63;;;5.78;55.39
24620;BME280;12763;55.802;37.404;2023-03-17T07:27:02;100249.88;;;5.68;54.33
24620;BME280;12763;55.802;37.404;2023-03-17T07:29:28;100266.75;;;5.39;54.10
24620;BME280;12763;55.802;37.404;2023-03-17T07:31:56;100257.28;;;5.09;55.22
24620;BME280;12763;55.802;37.404;2023-03-17T07:34:22;100265.63;;;5.58;54.88
24620;BME280;12763;55.802;37.404;2023-03-17T07:36:48;100265.44;;;5.75;54.78
24620;BME280;12763;55.802;37.404;2023-03-17T07:39:14;100264.25;;;5.78;54.49
24620;BME280;12763;55.802;37.404;2023-03-17T07:41:40;100272.13;;;5.81;53.93
24620;BME280;12763;55.802;37.404;2023-03-17T07:44:09;100266.31;;;5.68;53.88
24620;BME280;12763;55.802;37.404;2023-03-17T07:46:36;100276.09;;;5.86;53.47
24620;BME280;12763;55.802;37.404;2023-03-17T07:49:03;100276.44;;;6.00;53.03
24620;BME280;12763;55.802;37.404;2023-03-17T07:51:29;100285.28;;;5.69;53.23
24620;BME280;12763;55.802;37.404;2023-03-17T07:53:55;100282.53;;;5.61;53.46
24620;BME280;12763;55.802;37.404;2023-03-17T07:56:29;100287.56;;;5.90;53.07
24620;BME280;12763;55.802;37.404;2023-03-17T07:58:56;100281.91;;;6.00;52.56
24620;BME280;12763;55.802;37.404;2023-03-17T08:01:24;100295.91;;;5.80;52.54
24620;BME280;12763;55.802;37.404;2023-03-17T08:03:51;100303.34;;;6.04;52.75
24620;BME280;12763;55.802;37.404;2023-03-17T08:06:16;100309.28;;;6.08;51.73
24620;BME280;12763;55.802;37.404;2023-03-17T08:08:42;100313.75;;;6.01;52.36
24620;BME280;12763;55.802;37.404;2023-03-17T08:11:08;100319.06;;;6.34;51.74
24620;BME280;12763;55.802;37.404;2023-03-17T08:13:34;100316.13;;;6.52;50.49
24620;BME280;12763;55.802;37.404;2023-03-17T08:16:00;100324.59;;;6.97;50.41
24620;BME280;12763;55.802;37.404;2023-03-17T08:18:26;100339.50;;;6.95;50.39
24620;BME280;12763;55.802;37.404;2023-03-17T08:20:52;100333.94;;;6.64;50.38
24620;BME280;12763;55.802;37.404;2023-03-17T08:23:18;100336.22;;;6.99;49.46
24620;BME280;12763;55.802;37.404;2023-03-17T08:25:45;100333.59;;;6.67;48.98
24620;BME280;12763;55.802;37.404;2023-03-17T08:28:12;100344.34;;;6.85;49.00
24620;BME280;12763;55.802;37.404;2023-03-17T08:30:41;100349.38;;;6.65;48.96
24620;BME280;12763;55.802;37.404;2023-03-17T08:33:07;100347.66;;;6.64;48.96
24620;BME280;12763;55.802;37.404;2023-03-17T08:35:35;100350.19;;;6.66;48.76
24620;BME280;12763;55.802;37.404;2023-03-17T08:38:02;100355.22;;;6.54;49.28
24620;BME280;12763;55.802;37.404;2023-03-17T08:40:28;100352.41;;;6.86;48.42
24620;BME280;12763;55.802;37.404;2023-03-17T08:42:54;100371.41;;;7.04;47.86
24620;BME280;12763;55.802;37.404;2023-03-17T08:45:20;100373.47;;;6.94;47.83
24620;BME280;12763;55.802;37.404;2023-03-17T08:47:45;100372.63;;;6.85;48.05
24620;BME280;12763;55.802;37.404;2023-03-17T08:50:18;100380.88;;;6.77;48.05
24620;BME280;12763;55.802;37.404;2023-03-17T08:52:44;100369.72;;;6.87;48.38
24620;BME280;12763;55.802;37.404;2023-03-17T08:55:12;100366.03;;;7.10;48.04
24620;BME280;12763;55.802;37.404;2023-03-17T08:57:39;100375.69;;;7.06;48.15
24620;BME280;12763;55.802;37.404;2023-03-17T09:00:07;100367.50;;;6.66;47.51
24620;BME280;12763;55.802;37.404;2023-03-17T09:02:40;100374.53;;;6.77;47.81
24620;BME280;12763;55.802;37.404;2023-03-17T09:05:10;100373.44;;;7.02;47.77
24620;BME280;12763;55.802;37.404;2023-03-17T09:07:36;100381.06;;;6.76;47.51
24620;BME280;12763;55.802;37.404;2023-03-17T09:10:03;100385.00;;;6.41;45.96
24620;BME280;12763;55.802;37.404;2023-03-17T09:12:29;100393.94;;;6.35;45.70
24620;BME280;12763;55.802;37.404;2023-03-17T09:14:55;100388.63;;;6.49;45.74
24620;BME280;12763;55.802;37.404;2023-03-17T09:17:22;100387.06;;;6.79;45.09
24620;BME280;12763;55.802;37.404;2023-03-17T09:19:48;100395.28;;;6.71;44.06
24620;BME280;12763;55.802;37.404;2023-03-17T09:22:15;100389.13;;;6.69;43.18
24620;BME280;12763;55.802;37.404;2023-03-17T09:24:43;100397.88;;;6.48;41.96
24620;BME280;12763;55.802;37.404;2023-03-17T09:27:09;100396.69;;;6.51;42.14
24620;BME280;12763;55.802;37.404;2023-03-17T09:29:35;100402.16;;;6.67;41.54
24620;BME280;12763;55.802;37.404;2023-03-17T09:32:02;100399.41;;;6.59;40.94
24620;BME280;12763;55.802;37.404;2023-03-17T09:34:28;100408.16;;;6.46;40.63
24620;BME280;12763;55.802;37.404;2023-03-17T09:36:54;100406.59;;;6.84;40.12
24620;BME280;12763;55.802;37.404;2023-03-17T09:39:21;100412.06;;;6.92;40.44
24620;BME280;12763;55.802;37.404;2023-03-17T09:45:08;100403.56;;;7.34;38.07
24620;BME280;12763;55.802;37.404;2023-03-17T09:53:19;100410.59;;;7.98;37.66
24620;BME280;12763;55.802;37.404;2023-03-17T09:55:49;100410.88;;;8.57;37.10
24620;BME280;12763;55.802;37.404;2023-03-17T09:58:20;100411.88;;;8.64;36.45
24620;BME280;12763;55.802;37.404;2023-03-17T10:00:51;100402.84;;;9.36;37.07
24620;BME280;12763;55.802;37.404;2023-03-17T10:03:16;100414.91;;;9.65;36.53
24620;BME280;12763;55.802;37.404;2023-03-17T10:05:43;100413.66;;;9.82;37.00
24620;BME280;12763;55.802;37.404;2023-03-17T10:08:13;100411.28;;;10.29;36.44
24620;BME280;12763;55.802;37.404;2023-03-17T10:16:19;100424.34;;;10.84;35.45
24620;BME280;12763;55.802;37.404;2023-03-17T10:18:51;100425.53;;;10.54;35.64
24620;BME280;12763;55.802;37.404;2023-03-17T10:21:26;100420.53;;;10.43;34.31
24620;BME280;12763;55.802;37.404;2023-03-17T10:23:53;100421.53;;;10.56;35.36
24620;BME280;12763;55.802;37.404;2023-03-17T10:26:40;100415.94;;;10.29;32.27
24620;BME280;12763;55.802;37.404;2023-03-17T10:29:18;100414.56;;;10.39;32.97
24620;BME280;12763;55.802;37.404;2023-03-17T10:31:47;100420.44;;;11.00;34.74
24620;BME280;12763;55.802;37.404;2023-03-17T10:34:26;100413.13;;;11.54;33.62
24620;BME280;12763;55.802;37.404;2023-03-17T10:36:59;100431.16;;;10.88;33.08
24620;BME280;12763;55.802;37.404;2023-03-17T10:39:25;100427.41;;;10.75;32.96
24620;BME280;12763;55.802;37.404;2023-03-17T10:41:54;100430.97;;;11.17;32.72
24620;BME280;12763;55.802;37.404;2023-03-17T10:44:38;100433.94;;;11.16;31.44
24620;BME280;12763;55.802;37.404;2023-03-17T10:47:05;100434.91;;;11.64;32.18
24620;BME280;12763;55.802;37.404;2023-03-17T10:49:35;100432.03;;;12.32;30.62
24620;BME280;12763;55.802;37.404;2023-03-17T10:52:06;100437.94;;;12.16;29.81
24620;BME280;12763;55.802;37.404;2023-03-17T10:54:35;100434.03;;;11.98;31.02
24620;BME280;12763;55.802;37.404;2023-03-17T10:57:06;100438.84;;;11.83;29.46
24620;BME280;12763;55.802;37.404;2023-03-17T10:59:41;100442.56;;;11.62;28.99
24620;BME280;12763;55.802;37.404;2023-03-17T11:02:26;100442.56;;;11.68;27.72
24620;BME280;12763;55.802;37.404;2023-03-17T11:05:03;100453.88;;;11.39;28.01
24620;BME280;12763;55.802;37.404;2023-03-17T11:07:37;100445.97;;;12.05;27.78
24620;BME280;12763;55.802;37.404;2023-03-17T11:10:22;100449.75;;;11.56;27.15
24620;BME280;12763;55.802;37.404;2023-03-17T11:12:54;100464.41;;;11.85;28.83
24620;BME280;12763;55.802;37.404;2023-03-17T11:18:01;100461.16;;;14.19;26.76
24620;BME280;12763;55.802;37.404;2023-03-17T11:25:45;100465.81;;;15.00;25.58
24620;BME280;12763;55.802;37.404;2023-03-17T11:28:19;100469.88;;;14.35;24.54
24620;BME280;12763;55.802;37.404;2023-03-17T11:37:01;100459.94;;;14.08;22.50
24620;BME280;12763;55.802;37.404;2023-03-17T11:39:57;100473.47;;;13.65;22.98
24620;BME280;12763;55.802;37.404;2023-03-17T11:45:25;100473.50;;;13.26;22.48
24620;BME280;12763;55.802;37.404;2023-03-17T11:55:44;100478.19;;;14.80;22.31
24620;BME280;12763;55.802;37.404;2023-03-17T11:58:42;100485.56;;;14.92;21.82
24620;BME280;12763;55.802;37.404;2023-03-17T12:01:18;100474.94;;;14.83;22.23
24620;BME280;12763;55.802;37.404;2023-03-17T12:04:09;100483.81;;;14.16;21.80
24620;BME280;12763;55.802;37.404;2023-03-17T12:06:45;100485.44;;;13.59;22.64
24620;BME280;12763;55.802;37.404;2023-03-17T12:09:26;100480.84;;;14.10;22.96
24620;BME280;12763;55.802;37.404;2023-03-17T12:11:55;100483.75;;;14.29;23.23
24620;BME280;12763;55.802;37.404;2023-03-17T12:14:34;100487.81;;;15.33;22.69
24620;BME280;12763;55.802;37.404;2023-03-17T12:19:51;100487.84;;;15.02;22.62
24620;BME280;12763;55.802;37.404;2023-03-17T12:22:24;100486.44;;;15.49;21.03
24620;BME280;12763;55.802;37.404;2023-03-17T12:27:41;100498.47;;;15.36;20.85
24620;BME280;12763;55.802;37.404;2023-03-17T12:35:34;100512.19;;;14.18;21.76
24620;BME280;12763;55.802;37.404;2023-03-17T12:38:16;100507.69;;;14.74;21.70
24620;BME280;12763;55.802;37.404;2023-03-17T12:46:07;100512.34;;;15.43;20.93
24620;BME280;12763;55.802;37.404;2023-03-17T12:54:25;100517.94;;;15.36;20.79
24620;BME280;12763;55.802;37.404;2023-03-17T12:56:52;100518.88;;;14.99;22.18
24620;BME280;12763;55.802;37.404;2023-03-17T12:59:24;100510.13;;;14.95;22.53
24620;BME280;12763;55.802;37.404;2023-03-17T13:04:55;100531.47;;;15.33;22.23
24620;BME280;12763;55.802;37.404;2023-03-17T13:07:47;100531.94;;;13.83;21.78
24620;BME280;12763;55.802;37.404;2023-03-17T13:15:58;100528.78;;;14.88;22.01
24620;BME280;12763;55.802;37.404;2023-03-17T13:26:00;100535.75;;;15.84;21.26
24620;BME280;12763;55.802;37.404;2023-03-17T13:31:12;100539.78;;;16.79;20.74
24620;BME280;12763;55.802;37.404;2023-03-17T13:33:42;100526.69;;;15.40;20.96
24620;BME280;12763;55.802;37.404;2023-03-17T13:36:25;100538.88;;;15.70;20.41
24620;BME280;12763;55.802;37.404;2023-03-17T13:46:46;100550.25;;;16.11;21.97
24620;BME280;12763;55.802;37.404;2023-03-17T13:52:06;100559.28;;;15.33;20.69
24620;BME280;12763;55.802;37.404;2023-03-17T13:54:39;100552.09;;;15.74;21.12
24620;BME280;12763;55.802;37.404;2023-03-17T13:57:23;100565.50;;;15.59;20.00
24620;BME280;12763;55.802;37.404;2023-03-17T14:02:21;100569.56;;;16.06;21.02
24620;BME280;12763;55.802;37.404;2023-03-17T14:07:16;100570.44;;;15.26;21.19
24620;BME280;12763;55.802;37.404;2023-03-17T14:09:43;100571.69;;;14.99;21.40
24620;BME280;12763;55.802;37.404;2023-03-17T14:12:27;100574.22;;;14.56;20.98
24620;BME280;12763;55.802;37.404;2023-03-17T14:17:50;100589.06;;;14.88;21.35
24620;BME280;12763;55.802;37.404;2023-03-17T14:20:19;100590.78;;;15.20;21.34
24620;BME280;12763;55.802;37.404;2023-03-17T14:22:51;100593.59;;;15.13;21.03
24620;BME280;12763;55.802;37.404;2023-03-17T14:25:21;100592.78;;;14.62;21.45
24620;BME280;12763;55.802;37.404;2023-03-17T14:27:51;100589.56;;;14.72;20.81
24620;BME280;12763;55.802;37.404;2023-03-17T14:30:21;100598.63;;;14.98;20.64
24620;BME280;12763;55.802;37.404;2023-03-17T14:32:55;100603.09;;;14.55;20.59
24620;BME280;12763;55.802;37.404;2023-03-17T14:35:21;100594.00;;;14.79;21.00
24620;BME280;12763;55.802;37.404;2023-03-17T14:37:47;100603.16;;;14.86;21.14
24620;BME280;12763;55.802;37.404;2023-03-17T14:40:23;100596.41;;;14.69;20.81
24620;BME280;12763;55.802;37.404;2023-03-17T14:42:49;100597.34;;;14.94;21.50
24620;BME280;12763;55.802;37.404;2023-03-17T14:45:30;100595.13;;;15.09;21.06
24620;BME280;12763;55.802;37.404;2023-03-17T14:48:04;100610.69;;;14.79;22.05